Time;durP1;ratioP1;P1;durP2;ratioP2;P2;SDS_P1;SDS_P2;PMS_P1;PMS_P2;Temp;Humidity;BMP_temperature;BMP_pressure;BME280_temperature;BME280_humidity;BME280_pressure;Samples;Min_cycle;Max_cycle;Signal;HPM_P1;HPM_P2
2022/06/22 00:00:18;;;;;;;7.50;3.13;;;;;;;23.32;72.21;99435.16;4990477;28;20027;-81
2022/06/22 00:02:45;;;;;;;4.15;2.75;;;;;;;23.23;70.83;99414.25;4992076;28;20053;-85
2022/06/22 00:05:36;;;;;;;8.98;3.10;;;;;;;23.41;69.45;99428.84;4993803;28;20085;-81
2022/06/22 00:08:05;;;;;;;5.75;2.88;;;;;;;23.42;67.47;99418.84;4985855;28;20520;-80
2022/06/22 00:10:44;;;;;;;10.20;3.00;;;;;;;23.37;65.21;99411.16;4994590;28;20054;-80
2022/06/22 00:13:36;;;;;;;4.32;2.33;;;;;;;23.34;60.17;99400.56;4994377;28;20089;-84
2022/06/22 00:16:05;;;;;;;4.20;2.42;;;;;;;23.41;60.33;99407.13;4991151;28;20509;-84
2022/06/22 00:18:42;;;;;;;3.90;2.13;;;;;;;23.51;60.33;99417.13;4994038;28;20028;-83
2022/06/22 00:21:13;;;;;;;3.60;1.90;;;;;;;23.49;58.40;99413.69;4993230;28;20034;-83
2022/06/22 00:23:42;;;;;;;5.53;2.72;;;;;;;23.50;59.35;99410.84;4995150;28;20057;-84
2022/06/22 00:26:31;;;;;;;4.75;2.35;;;;;;;23.44;59.83;99414.97;4993639;28;20397;-81
2022/06/22 00:29:00;;;;;;;5.90;2.30;;;;;;;23.39;57.68;99424.59;4975633;28;20022;-80
2022/06/22 00:31:39;;;;;;;4.20;2.25;;;;;;;23.39;59.55;99425.41;4982282;28;20033;-83
2022/06/22 00:34:10;;;;;;;4.28;2.30;;;;;;;23.33;59.70;99420.56;4993725;28;20029;-83
2022/06/22 00:37:03;;;;;;;6.38;2.55;;;;;;;23.27;58.46;99426.59;4994707;28;20026;-83
2022/06/22 00:39:28;;;;;;;4.80;2.40;;;;;;;23.22;59.91;99428.84;4993139;28;20026;-84
2022/06/22 00:41:55;;;;;;;5.43;2.38;;;;;;;23.19;60.17;99437.28;4994996;28;20387;-80
2022/06/22 00:44:25;;;;;;;3.35;2.10;;;;;;;23.17;59.25;99431.13;4994839;28;20079;-80
2022/06/22 00:46:59;;;;;;;4.75;2.03;;;;;;;22.95;60.99;99387.13;4975212;28;20030;-84
2022/06/22 00:49:25;;;;;;;3.90;2.13;;;;;;;22.99;59.91;99389.44;4975371;28;20074;-83
2022/06/22 00:51:51;;;;;;;3.58;2.10;;;;;;;22.98;59.41;99392.28;4975356;28;20061;-83
2022/06/22 00:54:24;;;;;;;3.75;2.00;;;;;;;22.95;61.57;99388.00;4974214;28;20129;-83
2022/06/22 00:56:49;;;;;;;4.40;2.15;;;;;;;23.08;60.94;99404.00;4974018;28;20393;-81
2022/06/22 00:59:29;;;;;;;5.32;2.42;;;;;;;23.03;61.20;99400.88;4975131;28;20034;-81
2022/06/22 01:02:09;;;;;;;4.50;2.10;;;;;;;22.96;59.76;99411.44;4986183;28;20077;-83
2022/06/22 01:04:50;;;;;;;7.55;2.47;;;;;;;23.11;60.76;99447.13;4994060;28;20027;-81
2022/06/22 01:07:26;;;;;;;5.05;2.33;;;;;;;23.09;61.59;99446.41;4973271;28;20074;-80
2022/06/22 01:10:02;;;;;;;3.80;2.38;;;;;;;23.06;62.30;99438.56;4980161;28;20026;-80
2022/06/22 01:12:52;;;;;;;8.75;2.60;;;;;;;23.08;59.80;99442.00;4992851;28;20041;-83
2022/06/22 01:15:22;;;;;;;4.55;2.15;;;;;;;23.11;61.95;99445.25;4990427;28;20390;-83
2022/06/22 01:17:51;;;;;;;4.22;1.92;;;;;;;23.24;61.92;99466.69;4991445;28;20030;-80
2022/06/22 01:20:22;;;;;;;3.75;2.13;;;;;;;23.23;60.53;99478.53;4992123;28;20026;-82
2022/06/22 01:22:50;;;;;;;6.13;2.10;;;;;;;23.24;60.19;99497.38;4991637;28;20396;-83
2022/06/22 01:25:45;;;;;;;4.45;2.30;;;;;;;23.25;62.06;99488.25;4992911;28;20046;-82
2022/06/22 01:28:12;;;;;;;4.35;1.95;;;;;;;23.23;58.60;99471.25;5006677;28;20036;-81
2022/06/22 01:30:43;;;;;;;5.43;2.40;;;;;;;23.26;60.78;99445.69;5013651;28;20769;-80
2022/06/22 01:33:17;;;;;;;5.22;2.10;;;;;;;23.09;59.93;99401.16;5012376;28;20547;-80
2022/06/22 01:35:44;;;;;;;7.50;2.00;;;;;;;23.10;62.21;99392.00;4994892;28;20022;-83
2022/06/22 01:38:24;;;;;;;2.92;2.00;;;;;;;23.00;60.03;99361.31;4992648;28;20493;-80
2022/06/22 01:41:15;;;;;;;5.28;2.38;;;;;;;22.97;59.43;99369.72;4991465;28;20057;-80
2022/06/22 01:43:54;;;;;;;3.83;2.08;;;;;;;23.07;62.21;99376.00;4992687;28;20026;-80
2022/06/22 01:47:02;;;;;;;4.82;1.90;;;;;;;22.96;58.88;99359.03;4991084;28;20039;-81
2022/06/22 01:49:38;;;;;;;4.70;2.17;;;;;;;22.80;59.26;99359.59;4978155;28;20113;-81
2022/06/22 01:52:12;;;;;;;5.60;2.30;;;;;;;22.61;59.10;99359.59;4992366;28;20022;-81
2022/06/22 01:54:44;;;;;;;5.22;2.10;;;;;;;22.61;58.51;99378.56;4990996;28;20068;-81
2022/06/22 01:57:15;;;;;;;5.03;2.30;;;;;;;22.60;59.00;99376.84;4992681;28;20018;-83
2022/06/22 02:00:04;;;;;;;5.28;1.98;;;;;;;22.41;60.00;99356.94;4993535;28;20026;-83
2022/06/22 02:02:39;;;;;;;6.25;1.77;;;;;;;22.36;59.58;99368.22;4993468;28;20406;-83
2022/06/22 02:05:10;;;;;;;2.53;1.98;;;;;;;22.37;59.98;99378.06;4991998;28;20104;-81
2022/06/22 02:08:04;;;;;;;5.90;1.88;;;;;;;22.26;57.99;99393.59;4991866;28;20030;-82
2022/06/22 02:10:42;;;;;;;6.18;2.70;;;;;;;22.23;60.23;99383.88;4952329;28;20073;-80
2022/06/22 02:13:29;;;;;;;4.55;2.00;;;;;;;22.15;59.15;99397.25;4993352;28;20073;-81
2022/06/22 02:15:58;;;;;;;4.18;2.00;;;;;;;22.11;59.99;99406.63;4991760;28;20372;-81
2022/06/22 02:18:30;;;;;;;3.05;1.70;;;;;;;21.90;59.86;99403.13;4991663;28;20041;-81
2022/06/22 02:21:00;;;;;;;3.33;1.98;;;;;;;21.93;56.95;99414.56;4992577;28;20070;-83
2022/06/22 02:23:33;;;;;;;3.53;2.05;;;;;;;21.99;58.08;99424.00;4991568;28;20022;-83
2022/06/22 02:26:19;;;;;;;3.80;2.03;;;;;;;21.93;57.55;99402.84;4991566;28;20375;-84
2022/06/22 02:28:46;;;;;;;4.20;2.15;;;;;;;21.98;58.62;99408.72;4971944;28;20037;-81
2022/06/22 02:31:12;;;;;;;3.45;2.05;;;;;;;21.95;59.19;99417.13;4982483;28;20030;-83
2022/06/22 02:33:42;;;;;;;4.38;2.15;;;;;;;22.03;61.19;99426.28;4991538;28;20085;-81
2022/06/22 02:36:10;;;;;;;3.17;1.70;;;;;;;21.96;63.05;99429.66;4991527;28;20045;-81
2022/06/22 02:38:37;;;;;;;4.10;2.15;;;;;;;21.90;63.41;99432.94;4990663;28;20040;-81
2022/06/22 02:46:37;;;;;;;2.65;1.90;;;;;;;21.87;63.02;99453.03;4992459;28;20061;-83
2022/06/22 02:49:11;;;;;;;5.97;1.90;;;;;;;21.79;62.40;99438.44;4991569;28;20030;-84
2022/06/22 02:51:41;;;;;;;3.65;2.00;;;;;;;21.76;63.66;99431.41;4991574;28;20023;-81
2022/06/22 02:54:18;;;;;;;3.08;1.85;;;;;;;21.75;63.56;99426.97;4991446;28;20033;-81
2022/06/22 02:56:44;;;;;;;4.18;2.15;;;;;;;21.71;64.76;99419.28;4991445;28;20030;-80
2022/06/22 02:59:10;;;;;;;6.05;2.08;;;;;;;21.65;65.10;99409.81;4992850;28;20034;-83
2022/06/22 03:01:39;;;;;;;5.65;2.17;;;;;;;21.68;65.29;99419.53;4992166;28;20078;-84
2022/06/22 03:04:11;;;;;;;3.40;2.10;;;;;;;21.71;64.02;99424.69;4991576;28;20569;-83
2022/06/22 03:06:44;;;;;;;2.77;1.60;;;;;;;21.57;64.74;99406.06;5007382;28;20137;-81
2022/06/22 03:09:10;;;;;;;10.65;2.05;;;;;;;21.58;64.54;99386.97;4994689;28;20264;-81
2022/06/22 03:11:40;;;;;;;3.85;2.38;;;;;;;21.62;65.69;99398.41;5012011;28;20033;-81
2022/06/22 03:14:17;;;;;;;2.47;1.73;;;;;;;21.63;66.29;99402.84;5012063;28;20109;-83
2022/06/22 03:16:45;;;;;;;10.23;2.35;;;;;;;21.64;65.18;99399.13;4994111;28;20489;-81
2022/06/22 03:19:25;;;;;;;11.80;2.45;;;;;;;21.61;64.78;99404.81;4994047;28;20026;-81
2022/06/22 03:21:50;;;;;;;4.70;2.05;;;;;;;21.63;64.96;99400.97;5012884;28;20029;-81
2022/06/22 03:24:41;;;;;;;5.40;2.15;;;;;;;21.76;64.32;99422.44;4995649;28;20453;-81
2022/06/22 03:27:16;;;;;;;7.15;2.20;;;;;;;21.77;65.17;99424.16;5002190;28;20124;-81
2022/06/22 03:29:56;;;;;;;3.15;1.83;;;;;;;21.67;64.88;99413.25;5026925;28;20030;-81
2022/06/22 03:32:31;;;;;;;3.15;1.90;;;;;;;21.67;64.72;99417.81;4974221;28;20026;-81
2022/06/22 03:35:19;;;;;;;5.97;2.10;;;;;;;21.72;66.12;99423.69;4973672;28;20141;-81
2022/06/22 03:37:56;;;;;;;5.40;2.10;;;;;;;21.73;66.24;99438.94;4973806;28;20553;-84
2022/06/22 03:40:50;;;;;;;6.63;2.15;;;;;;;21.76;66.65;99453.09;4989913;28;20045;-84
2022/06/22 03:43:25;;;;;;;4.28;2.20;;;;;;;21.73;67.15;99437.06;5007770;28;20080;-82
2022/06/22 03:45:58;;;;;;;4.32;2.05;;;;;;;21.69;66.63;99429.38;5015658;28;20112;-82
2022/06/22 03:48:32;;;;;;;12.25;3.10;;;;;;;21.82;67.14;99449.00;5015658;28;20030;-82
2022/06/22 03:51:05;;;;;;;5.35;2.00;;;;;;;21.80;67.51;99435.59;5015721;28;20501;-82
2022/06/22 03:53:41;;;;;;;6.03;2.30;;;;;;;21.52;67.76;99389.38;4997949;28;20030;-84
2022/06/22 03:56:14;;;;;;;4.40;2.40;;;;;;;21.71;67.39;99413.84;5015516;28;20108;-85
2022/06/22 03:58:43;;;;;;;4.40;2.05;;;;;;;21.80;67.51;99423.91;4997542;28;20091;-83
2022/06/22 04:01:10;;;;;;;4.78;2.20;;;;;;;21.66;67.35;99394.44;4997603;28;20026;-82
2022/06/22 04:03:36;;;;;;;3.17;1.80;;;;;;;21.79;67.36;99427.59;5014967;28;20036;-82
2022/06/22 04:06:03;;;;;;;4.18;2.40;;;;;;;21.83;66.78;99434.44;5015153;28;20645;-82
2022/06/22 04:08:33;;;;;;;3.97;1.92;;;;;;;21.81;64.29;99444.59;4997610;28;20022;-84
2022/06/22 04:11:15;;;;;;;5.45;1.90;;;;;;;21.83;64.38;99435.31;4997941;28;20030;-82
2022/06/22 04:14:01;;;;;;;3.05;1.70;;;;;;;21.62;64.78;99449.84;5014986;28;20026;-84
2022/06/22 04:16:36;;;;;;;6.50;2.13;;;;;;;21.55;65.50;99468.44;4997450;28;20038;-84
2022/06/22 04:19:10;;;;;;;2.90;2.05;;;;;;;21.50;68.10;99465.28;5014974;28;20054;-84
2022/06/22 04:21:44;;;;;;;3.88;1.92;;;;;;;21.43;70.75;99455.97;4996461;28;20378;-81
2022/06/22 04:24:24;;;;;;;3.90;1.98;;;;;;;21.70;70.47;99471.69;5014721;28;20528;-84
2022/06/22 04:27:09;;;;;;;5.47;2.13;;;;;;;21.90;70.94;99477.13;5020415;28;20037;-83
2022/06/22 04:30:00;;;;;;;4.47;1.88;;;;;;;21.85;70.58;99486.63;5034574;28;20087;-82
2022/06/22 04:32:33;;;;;;;4.05;2.00;;;;;;;21.85;70.42;99494.75;5034226;28;20491;-82
2022/06/22 04:35:18;;;;;;;3.85;2.20;;;;;;;21.86;69.93;99499.19;5016797;28;20080;-84
2022/06/22 04:37:49;;;;;;;3.15;2.10;;;;;;;21.72;70.08;99475.13;5034289;28;20397;-81
2022/06/22 04:40:25;;;;;;;5.43;2.13;;;;;;;21.74;67.69;99500.22;5028173;28;20413;-83
2022/06/22 04:42:57;;;;;;;5.22;2.13;;;;;;;21.68;65.05;99492.63;5014348;28;20034;-83
2022/06/22 04:45:31;;;;;;;5.90;2.00;;;;;;;21.36;66.79;99499.94;5014343;28;20037;-83
2022/06/22 04:48:05;;;;;;;6.10;2.28;;;;;;;21.39;69.62;99488.84;4997186;28;20060;-87
2022/06/22 04:50:31;;;;;;;5.07;2.45;;;;;;;21.59;70.43;99493.41;5013358;28;20033;-85
2022/06/22 04:52:59;;;;;;;5.25;2.45;;;;;;;21.57;72.79;99488.13;4996642;28;20041;-86
2022/06/22 04:55:26;;;;;;;4.03;2.47;;;;;;;21.67;74.24;99504.44;4996712;28;20055;-84
2022/06/22 04:57:57;;;;;;;4.75;2.97;;;;;;;21.58;75.45;99499.81;4996196;28;20026;-84
2022/06/22 05:00:26;;;;;;;5.07;2.72;;;;;;;21.44;77.96;99492.00;5014008;28;20036;-85
2022/06/22 05:03:13;;;;;;;5.18;2.38;;;;;;;21.46;79.34;99511.69;4996549;28;20029;-84
2022/06/22 05:05:39;;;;;;;7.03;2.72;;;;;;;21.26;82.53;99498.97;4993110;28;20046;-85
2022/06/22 05:08:15;;;;;;;6.00;3.25;;;;;;;21.18;82.68;99512.28;4993776;28;20023;-84
2022/06/22 05:11:02;;;;;;;7.95;3.10;;;;;;;21.20;82.77;99531.97;4993933;28;20030;-83
2022/06/22 05:13:43;;;;;;;6.88;3.45;;;;;;;21.11;84.08;99533.59;4994857;28;20030;-84
2022/06/22 05:16:13;;;;;;;5.40;2.90;;;;;;;21.01;85.60;99532.63;4995077;28;20034;-83
2022/06/22 05:18:42;;;;;;;5.15;2.85;;;;;;;20.75;86.08;99487.94;4996404;28;20045;-83
2022/06/22 05:21:26;;;;;;;4.15;3.00;;;;;;;20.91;87.31;99532.50;4998343;28;20050;-83
2022/06/22 05:23:55;;;;;;;13.20;4.55;;;;;;;20.71;87.82;99525.16;4993287;28;20057;-85
2022/06/22 05:26:24;;;;;;;9.32;4.60;;;;;;;20.61;90.11;99512.53;4994881;28;20030;-85
2022/06/22 05:29:06;;;;;;;12.63;5.40;;;;;;;20.61;94.18;99520.63;5012416;28;20108;-86
2022/06/22 05:31:36;;;;;;;9.82;4.50;;;;;;;20.55;96.47;99534.66;5014098;28;20026;-86
2022/06/22 05:34:07;;;;;;;8.65;4.50;;;;;;;20.46;97.74;99525.44;5012819;28;20029;-85
2022/06/22 05:36:40;;;;;;;7.97;4.97;;;;;;;20.37;98.85;99503.72;5008850;28;20032;-85
2022/06/22 05:39:06;;;;;;;8.23;4.77;;;;;;;20.40;99.08;99523.25;4973587;28;20027;-84
2022/06/22 05:41:36;;;;;;;10.50;4.65;;;;;;;20.22;100.00;99505.81;4973843;28;20027;-85
2022/06/22 05:44:11;;;;;;;10.05;5.57;;;;;;;20.14;100.00;99483.06;4988628;28;20032;-85
2022/06/22 05:46:39;;;;;;;13.10;7.45;;;;;;;20.06;100.00;99485.50;4992989;28;20029;-85
2022/06/22 05:49:13;;;;;;;13.02;5.97;;;;;;;20.08;100.00;99497.91;4994198;28;20022;-86
2022/06/22 05:51:43;;;;;;;8.77;4.93;;;;;;;20.16;100.00;99509.00;4993040;28;20034;-85
2022/06/22 05:54:26;;;;;;;7.43;4.30;;;;;;;20.09;100.00;99493.34;4991613;28;20085;-85
2022/06/22 05:57:09;;;;;;;7.65;4.85;;;;;;;19.75;100.00;99435.81;4992908;28;20030;-85
2022/06/22 05:59:41;;;;;;;7.95;5.07;;;;;;;20.13;100.00;99522.69;4991684;28;20077;-85
2022/06/22 06:02:27;;;;;;;8.02;4.45;;;;;;;20.21;100.00;99514.91;4992268;28;20081;-85
2022/06/22 06:05:00;;;;;;;9.32;4.88;;;;;;;20.29;100.00;99522.38;4994377;28;20023;-85
2022/06/22 06:07:40;;;;;;;9.52;4.97;;;;;;;20.29;100.00;99515.16;4995970;28;20108;-86
2022/06/22 06:10:16;;;;;;;8.02;4.60;;;;;;;20.37;100.00;99519.91;4995616;28;20705;-86
2022/06/22 06:12:50;;;;;;;8.43;5.03;;;;;;;20.24;100.00;99470.56;5013076;28;20668;-86
2022/06/22 06:15:15;;;;;;;10.82;5.65;;;;;;;20.26;100.00;99474.00;4994636;28;20084;-86
2022/06/22 06:17:45;;;;;;;8.82;5.22;;;;;;;20.38;100.00;99495.47;4994135;28;20795;-86
2022/06/22 06:20:37;;;;;;;8.93;5.57;;;;;;;20.02;100.00;99422.78;4994165;28;20116;-84
2022/06/22 06:23:32;;;;;;;9.25;4.63;;;;;;;20.52;100.00;99494.38;4991832;28;20037;-84
2022/06/22 06:28:50;;;;;;;8.05;4.88;;;;;;;20.64;100.00;99467.19;5011947;28;20028;-86
2022/06/22 06:31:27;;;;;;;10.25;5.47;;;;;;;20.76;100.00;99459.91;4995569;28;20034;-86
2022/06/22 06:33:55;;;;;;;7.88;5.65;;;;;;;20.85;100.00;99462.72;4995092;28;20050;-84
2022/06/22 06:36:34;;;;;;;9.68;6.00;;;;;;;20.91;100.00;99462.22;4994802;28;20053;-85
2022/06/22 06:39:05;;;;;;;10.13;5.45;;;;;;;21.06;100.00;99470.03;4995064;28;20034;-84
2022/06/22 06:41:34;;;;;;;8.65;5.03;;;;;;;21.15;100.00;99458.47;5012831;28;20103;-86
2022/06/22 06:44:13;;;;;;;7.97;5.57;;;;;;;21.38;100.00;99485.28;4994774;28;20397;-83
2022/06/22 06:46:45;;;;;;;8.95;5.78;;;;;;;21.29;100.00;99472.53;5012299;28;20152;-85
2022/06/22 06:49:38;;;;;;;11.90;6.47;;;;;;;21.43;100.00;99501.13;5012360;28;20025;-85
2022/06/22 06:52:20;;;;;;;10.23;5.82;;;;;;;21.43;100.00;99484.91;4994827;28;20026;-85
2022/06/22 06:55:00;;;;;;;11.15;6.38;;;;;;;21.38;100.00;99484.44;4994472;28;20061;-86
2022/06/22 06:57:25;;;;;;;12.75;6.75;;;;;;;21.57;100.00;99504.38;4994812;28;20026;-83
2022/06/22 07:00:04;;;;;;;9.40;6.53;;;;;;;21.58;100.00;99489.00;4994506;28;20507;-84
2022/06/22 07:02:38;;;;;;;10.75;6.80;;;;;;;21.72;100.00;99497.66;4994313;28;20034;-85
2022/06/22 07:05:10;;;;;;;9.85;6.65;;;;;;;21.97;100.00;99521.66;4994259;28;20138;-85
2022/06/22 07:07:57;;;;;;;12.82;6.97;;;;;;;22.10;100.00;99508.75;5011541;28;20049;-83
2022/06/22 07:10:44;;;;;;;11.70;6.65;;;;;;;22.39;100.00;99513.44;5011960;28;20068;-85
2022/06/22 07:13:56;;;;;;;9.70;7.35;;;;;;;22.70;100.00;99515.16;4993831;28;20247;-86
2022/06/22 07:16:24;;;;;;;12.07;6.80;;;;;;;22.91;100.00;99516.78;4992006;28;20060;-85
2022/06/22 07:18:55;;;;;;;10.27;6.43;;;;;;;23.18;99.94;99525.09;4994141;28;20025;-83
2022/06/22 07:21:38;;;;;;;9.90;5.95;;;;;;;23.36;96.62;99550.56;5011665;28;20045;-86
2022/06/22 07:24:18;;;;;;;9.63;5.80;;;;;;;23.36;93.93;99566.88;5011677;28;20034;-86
2022/06/22 07:27:13;;;;;;;8.55;5.65;;;;;;;23.55;91.59;99562.44;4998420;28;20021;-86
2022/06/22 07:29:56;;;;;;;8.95;5.38;;;;;;;23.79;89.25;99514.00;4992645;28;20053;-84
2022/06/22 07:32:48;;;;;;;8.95;5.18;;;;;;;24.11;89.67;99531.69;5012365;28;20029;-86
2022/06/22 07:35:28;;;;;;;9.00;4.53;;;;;;;24.10;85.31;99559.84;4991555;28;20066;-85
2022/06/22 07:38:05;;;;;;;10.93;5.85;;;;;;;23.97;86.91;99567.44;4992557;28;20443;-86
2022/06/22 07:40:33;;;;;;;10.50;5.28;;;;;;;23.63;85.23;99540.84;4993056;28;20393;-86
2022/06/22 07:43:00;;;;;;;10.52;5.00;;;;;;;23.61;85.33;99553.75;4993468;28;20098;-86
2022/06/22 07:45:28;;;;;;;7.97;4.75;;;;;;;23.46;86.45;99533.44;4993853;28;20037;-83
2022/06/22 07:48:02;;;;;;;7.68;4.80;;;;;;;23.61;87.78;99535.56;4994188;28;20033;-86
2022/06/22 07:50:32;;;;;;;12.30;5.18;;;;;;;23.85;87.99;99530.56;4994095;28;20017;-86
2022/06/22 07:53:18;;;;;;;7.40;5.07;;;;;;;24.21;87.69;99526.22;4993988;28;20029;-86
2022/06/22 07:56:03;;;;;;;8.38;5.40;;;;;;;24.27;86.16;99514.75;4992368;28;20552;-86
2022/06/22 07:58:37;;;;;;;8.65;5.07;;;;;;;24.29;82.89;99526.34;4992879;28;20018;-84
2022/06/22 08:01:08;;;;;;;8.88;5.38;;;;;;;24.37;84.68;99548.19;5009854;28;20038;-87
2022/06/22 08:03:42;;;;;;;10.45;5.90;;;;;;;24.28;85.18;99559.97;4992331;28;20393;-86
2022/06/22 08:06:10;;;;;;;;;;;;;;;24.30;85.02;99553.38;4992631;28;20050;-87
2022/06/22 08:08:43;;;;;;;12.02;5.93;;;;;;;24.18;85.67;99532.81;4992202;28;19913;-83
2022/06/22 08:11:22;;;;;;;16.20;6.93;;;;;;;24.37;87.13;99561.78;5010223;28;20029;-83
2022/06/22 08:13:55;;;;;;;9.98;6.13;;;;;;;24.24;87.86;99540.38;4993590;28;20080;-84
2022/06/22 08:16:31;;;;;;;8.35;5.63;;;;;;;24.31;87.20;99527.06;5010512;28;20040;-86
2022/06/22 08:18:59;;;;;;;8.05;5.68;;;;;;;24.44;84.84;99533.00;4993287;28;20056;-84
2022/06/22 08:21:24;;;;;;;8.50;5.82;;;;;;;24.43;84.38;99537.59;5010470;28;20030;-83
2022/06/22 08:23:51;;;;;;;14.68;6.32;;;;;;;24.43;83.50;99545.75;4993244;28;20393;-87
2022/06/22 08:26:31;;;;;;;8.80;5.63;;;;;;;24.32;82.38;99545.06;4996903;28;20442;-87
2022/06/22 08:28:58;;;;;;;10.15;6.05;;;;;;;24.22;83.15;99528.78;4998171;28;20492;-84
2022/06/22 08:31:30;;;;;;;10.48;6.43;;;;;;;24.33;84.34;99560.41;4996813;28;20109;-86
2022/06/22 08:33:59;;;;;;;11.52;6.28;;;;;;;24.11;83.79;99549.84;5015281;28;20112;-87
2022/06/22 08:36:36;;;;;;;8.02;5.25;;;;;;;24.10;82.92;99546.25;4997283;28;20385;-87
2022/06/22 08:39:28;;;;;;;12.30;6.43;;;;;;;23.88;80.18;99513.09;5017744;28;20026;-83
2022/06/22 08:42:05;;;;;;;9.45;6.13;;;;;;;23.96;82.73;99532.25;4996293;28;20504;-85
2022/06/22 08:44:52;;;;;;;11.95;7.30;;;;;;;24.08;83.44;99555.59;4997204;28;20037;-83
2022/06/22 08:47:36;;;;;;;10.88;5.43;;;;;;;24.00;84.37;99563.63;5014634;28;20104;-83
2022/06/22 08:50:38;;;;;;;10.65;6.93;;;;;;;23.87;84.08;99554.88;5014751;28;20021;-86
2022/06/22 08:53:13;;;;;;;8.02;5.97;;;;;;;23.88;85.78;99564.72;5014937;28;20025;-86
2022/06/22 08:55:56;;;;;;;13.23;6.38;;;;;;;23.74;87.94;99548.88;4996682;28;20030;-83
2022/06/22 08:58:35;;;;;;;9.50;6.05;;;;;;;23.87;85.00;99576.59;4996788;28;20072;-83
2022/06/22 09:01:39;;;;;;;13.05;7.15;;;;;;;23.79;86.65;99576.47;4996024;28;20425;-86
2022/06/22 09:04:22;;;;;;;13.43;6.95;;;;;;;23.77;88.35;99581.19;4995147;28;20026;-83
2022/06/22 09:07:09;;;;;;;12.38;6.65;;;;;;;23.73;88.00;99582.47;4996280;28;20421;-83
2022/06/22 09:10:04;;;;;;;10.15;6.97;;;;;;;23.72;87.07;99578.03;5014164;28;20026;-83
2022/06/22 09:13:01;;;;;;;11.32;6.60;;;;;;;23.77;87.71;99578.47;4996267;28;20030;-85
2022/06/22 09:15:41;;;;;;;11.40;7.40;;;;;;;23.77;86.93;99570.31;4996938;28;20018;-87
2022/06/22 09:18:35;;;;;;;13.63;7.32;;;;;;;23.77;87.67;99570.31;4996224;28;20029;-86
2022/06/22 09:21:01;;;;;;;11.35;7.47;;;;;;;23.86;88.42;99583.88;4996238;28;20065;-86
2022/06/22 09:23:32;;;;;;;13.00;8.20;;;;;;;23.87;88.09;99582.88;5014353;28;20120;-83
2022/06/22 09:26:13;;;;;;;10.80;6.90;;;;;;;23.79;87.39;99562.91;5013979;28;20847;-84
2022/06/22 09:28:48;;;;;;;9.98;7.38;;;;;;;23.97;89.24;99581.00;4976995;28;20025;-84
2022/06/22 09:31:35;;;;;;;12.45;7.88;;;;;;;24.02;89.02;99578.75;4991872;28;20032;-86
2022/06/22 09:34:28;;;;;;;14.07;7.85;;;;;;;23.98;87.06;99568.31;4996173;28;20037;-87
2022/06/22 09:37:18;;;;;;;13.25;7.35;;;;;;;24.16;88.10;99588.31;4995136;28;20040;-83
2022/06/22 09:40:03;;;;;;;12.15;8.70;;;;;;;24.19;86.06;99588.88;4999229;28;20104;-82
2022/06/22 09:42:51;;;;;;;13.63;8.82;;;;;;;24.31;86.03;99590.44;5020850;28;20373;-86
2022/06/22 09:45:40;;;;;;;12.40;7.88;;;;;;;24.19;85.04;99579.88;5015189;28;20108;-85
2022/06/22 09:48:33;;;;;;;14.15;8.25;;;;;;;24.48;87.18;99577.94;5013074;28;20521;-84
2022/06/22 09:51:20;;;;;;;12.50;7.35;;;;;;;24.64;86.49;99602.66;4996602;28;20133;-82
2022/06/22 09:56:19;;;;;;;13.10;8.15;;;;;;;24.78;84.29;99595.91;4995491;28;20030;-86
2022/06/22 09:57:38;;;;;;;12.93;8.60;;;;;;;24.80;81.80;99597.47;5012832;28;20160;-84
2022/06/22 10:00:09;;;;;;;12.80;9.27;;;;;;;24.87;83.43;99589.56;5013218;28;20029;-82
2022/06/22 10:02:44;;;;;;;14.55;8.48;;;;;;;25.03;84.38;99601.50;5013375;28;20036;-82
2022/06/22 10:05:40;;;;;;;11.93;8.20;;;;;;;24.87;84.59;99584.97;5013004;28;20045;-82
2022/06/22 10:08:14;;;;;;;13.02;8.90;;;;;;;25.05;86.94;99602.22;4995385;28;20026;-86
2022/06/22 10:10:55;;;;;;;12.35;8.60;;;;;;;25.01;86.13;99598.06;4995122;28;20072;-85
2022/06/22 10:13:48;;;;;;;13.15;8.63;;;;;;;24.97;87.08;99599.41;5013116;28;20033;-85
2022/06/22 10:16:41;;;;;;;13.00;8.68;;;;;;;24.84;87.58;99606.19;4995247;28;20030;-85
2022/06/22 10:19:29;;;;;;;16.60;8.18;;;;;;;24.67;89.86;99610.50;5012725;28;20049;-85
2022/06/22 10:22:14;;;;;;;7.95;4.05;;;;;;;24.68;89.32;99617.69;4995460;28;20030;-85
2022/06/22 10:24:53;;;;;;;7.15;3.05;;;;;;;24.74;89.01;99621.69;4995096;28;20113;-87
2022/06/22 10:27:34;;;;;;;7.55;2.78;;;;;;;24.68;89.39;99612.25;5004836;28;20059;-87
2022/06/22 10:30:18;;;;;;;9.05;2.63;;;;;;;24.61;88.17;99616.56;5015121;28;20122;-86
2022/06/22 10:33:03;;;;;;;9.30;2.40;;;;;;;24.50;87.58;99603.13;5014862;28;20025;-84
2022/06/22 10:35:42;;;;;;;11.13;2.92;;;;;;;24.62;88.41;99620.97;5013414;28;20163;-87
2022/06/22 10:38:16;;;;;;;6.43;2.45;;;;;;;24.53;86.40;99608.25;5004848;28;20036;-83
2022/06/22 10:46:45;;;;;;;9.75;3.03;;;;;;;24.84;85.51;99607.06;5012318;28;20060;-82
2022/06/22 10:49:38;;;;;;;9.82;2.60;;;;;;;24.90;85.13;99601.00;4992625;28;20432;-86
2022/06/22 10:52:28;;;;;;;8.20;2.50;;;;;;;24.96;84.99;99616.72;4992695;28;20061;-81
2022/06/22 10:55:03;;;;;;;7.53;2.35;;;;;;;24.97;83.65;99618.44;4992430;28;20088;-84
2022/06/22 10:57:46;;;;;;;9.30;2.75;;;;;;;24.88;82.96;99616.63;4992514;28;20033;-83
2022/06/22 11:00:15;;;;;;;8.85;2.60;;;;;;;25.04;84.21;99619.53;5011331;28;20396;-85
2022/06/22 11:03:17;;;;;;;9.25;2.28;;;;;;;25.21;85.13;99617.88;5011617;28;20540;-85
2022/06/22 11:05:56;;;;;;;11.95;3.45;;;;;;;25.41;80.52;99614.94;4993993;28;20504;-82
2022/06/22 11:08:48;;;;;;;11.57;3.20;;;;;;;25.44;80.15;99616.47;5011554;28;20160;-83
2022/06/22 11:11:26;;;;;;;9.77;2.55;;;;;;;25.62;79.74;99610.03;4999003;28;20029;-86
2022/06/22 11:14:21;;;;;;;9.57;2.30;;;;;;;25.71;79.10;99628.22;4991131;28;20042;-86
2022/06/22 11:16:55;;;;;;;10.13;2.35;;;;;;;25.57;77.96;99616.97;4994527;28;20028;-85
2022/06/22 11:19:54;;;;;;;11.45;2.97;;;;;;;25.66;76.78;99599.69;4995512;28;20497;-86
2022/06/22 11:22:27;;;;;;;10.48;2.25;;;;;;;25.68;76.44;99609.41;4964145;28;20033;-82
2022/06/22 11:25:16;;;;;;;7.95;2.10;;;;;;;25.83;76.58;99612.47;4994587;28;20112;-83
2022/06/22 11:30:59;;;;;;;7.68;2.58;;;;;;;25.74;76.62;99600.66;4983592;28;20037;-85
2022/06/22 11:33:27;;;;;;;8.95;2.50;;;;;;;25.86;76.73;99613.00;5012775;28;20029;-83
2022/06/22 11:36:22;;;;;;;6.78;2.08;;;;;;;25.78;78.38;99585.69;5012747;28;20026;-83
2022/06/22 11:39:16;;;;;;;6.80;2.15;;;;;;;25.72;77.01;99578.13;4983675;28;20033;-81
2022/06/22 11:42:01;;;;;;;11.15;2.45;;;;;;;25.69;76.87;99583.91;4980785;28;20038;-87
2022/06/22 11:47:55;;;;;;;8.13;2.15;;;;;;;26.10;75.92;99593.31;5012530;28;20064;-87
2022/06/22 11:50:39;;;;;;;;;;;;;;;26.38;75.29;99585.84;4997149;28;20034;-88
2022/06/22 11:53:48;;;;;;;6.15;2.28;;;;;;;26.65;74.97;99582.97;4994669;28;20273;-85
2022/06/22 11:56:32;;;;;;;9.90;1.98;;;;;;;26.88;73.00;99592.31;4986839;28;20196;-82
2022/06/22 11:59:04;;;;;;;;;;;;;;;26.84;71.55;99593.66;4996298;28;20029;-83
2022/06/22 12:01:46;;;;;;;10.30;2.33;;;;;;;26.95;71.48;99585.19;4998482;28;19913;-82
2022/06/22 12:04:24;;;;;;;8.40;1.55;;;;;;;26.80;70.35;99582.22;4998943;28;20033;-83
2022/06/22 12:07:23;;;;;;;9.60;1.95;;;;;;;26.92;70.13;99570.00;5015228;28;20049;-86
2022/06/22 12:10:12;;;;;;;7.57;1.63;;;;;;;27.09;70.37;99560.00;5015365;28;20452;-86
2022/06/22 12:13:32;;;;;;;7.15;2.33;;;;;;;27.37;69.72;99553.28;4997357;28;20121;-86
2022/06/22 12:16:16;;;;;;;13.15;3.05;;;;;;;27.44;66.64;99570.72;4954776;28;20487;-85
2022/06/22 12:19:08;;;;;;;7.78;2.15;;;;;;;27.44;69.05;99559.78;4982454;28;20523;-82
2022/06/22 12:21:55;;;;;;;5.70;1.83;;;;;;;27.26;69.27;99572.69;5003325;28;20481;-87
2022/06/22 12:24:30;;;;;;;9.38;2.22;;;;;;;27.35;67.66;99582.63;4999260;28;20442;-87
2022/06/22 12:27:08;;;;;;;9.35;2.20;;;;;;;27.06;67.47;99573.97;5025262;28;20040;-82
2022/06/22 12:29:44;;;;;;;6.70;1.60;;;;;;;26.95;67.80;99555.19;5036202;28;20017;-85
2022/06/22 12:32:31;;;;;;;11.70;2.17;;;;;;;26.97;68.78;99558.56;5017018;28;20120;-82
2022/06/22 12:35:13;;;;;;;7.32;1.80;;;;;;;27.13;69.72;99551.28;5034732;28;20529;-82
2022/06/22 12:37:43;;;;;;;7.47;1.77;;;;;;;27.08;68.06;99548.19;5034852;28;20025;-86
2022/06/22 12:40:34;;;;;;;8.70;1.67;;;;;;;27.06;68.83;99544.81;5016785;28;20448;-82
2022/06/22 12:43:21;;;;;;;12.15;2.00;;;;;;;27.03;67.90;99544.28;5010252;28;20095;-82